createdAt,value
2018-09-11T00:00:26.609Z,24.08
2018-09-11T00:00:58.190Z,24.08
2018-09-11T00:01:29.775Z,24.08
2018-09-11T00:02:01.369Z,24.08
2018-09-11T00:02:32.955Z,24.07
2018-09-11T00:03:04.539Z,24.09
2018-09-11T00:03:36.181Z,24.10
2018-09-11T00:04:07.768Z,24.10
2018-09-11T00:04:39.360Z,24.10
2018-09-11T00:05:10.951Z,24.10
2018-09-11T00:05:42.557Z,24.09
2018-09-11T00:06:14.143Z,24.09
2018-09-11T00:06:45.737Z,24.09
2018-09-11T00:07:17.333Z,24.10
2018-09-11T00:07:48.942Z,24.10
2018-09-11T00:08:20.532Z,24.10
2018-09-11T00:08:52.155Z,24.11
2018-09-11T00:09:23.741Z,24.11
2018-09-11T00:09:55.379Z,24.11
2018-09-11T00:10:26.978Z,24.11
2018-09-11T00:10:58.567Z,24.11
2018-09-11T00:11:30.161Z,24.10
2018-09-11T00:12:01.751Z,24.10
2018-09-11T00:12:33.336Z,24.10
2018-09-11T00:13:04.939Z,24.09
2018-09-11T00:13:36.531Z,24.09
2018-09-11T00:14:08.118Z,24.09
2018-09-11T00:14:39.693Z,24.06
2018-09-11T00:15:11.319Z,24.07
2018-09-11T00:15:42.893Z,24.07
2018-09-11T00:16:14.480Z,24.08
2018-09-11T00:16:46.073Z,24.09
2018-09-11T00:17:17.674Z,24.11
2018-09-11T00:17:49.255Z,24.11
2018-09-11T00:18:20.840Z,24.11
2018-09-11T00:18:52.418Z,24.10
2018-09-11T00:19:24.002Z,24.10
2018-09-11T00:19:55.582Z,24.09
2018-09-11T00:20:27.223Z,24.10
2018-09-11T00:20:58.818Z,24.09
2018-09-11T00:21:30.399Z,24.09
2018-09-11T00:22:01.976Z,24.08
2018-09-11T00:22:33.563Z,24.09
2018-09-11T00:23:05.152Z,24.08
2018-09-11T00:23:36.730Z,24.08
2018-09-11T00:24:08.315Z,24.07
2018-09-11T00:24:39.895Z,24.07
2018-09-11T00:25:11.470Z,24.07
2018-09-11T00:25:43.091Z,24.07
2018-09-11T00:26:14.676Z,24.07
2018-09-11T00:26:46.264Z,24.07
2018-09-11T00:27:17.861Z,24.07
2018-09-11T00:27:49.447Z,24.08
2018-09-11T00:28:21.078Z,24.09
2018-09-11T00:28:52.664Z,24.10
2018-09-11T00:29:24.247Z,24.11
2018-09-11T00:29:55.839Z,24.10
2018-09-11T00:30:27.423Z,24.10
2018-09-11T00:30:59.007Z,24.10
2018-09-11T00:31:30.601Z,24.10
2018-09-11T00:32:02.197Z,24.10
2018-09-11T00:32:33.777Z,24.10
2018-09-11T00:33:05.369Z,24.10
2018-09-11T00:33:37.010Z,24.10
2018-09-11T00:34:08.581Z,24.09
2018-09-11T00:34:40.182Z,24.08
2018-09-11T00:35:11.774Z,24.08
2018-09-11T00:35:43.421Z,24.08
2018-09-11T00:36:15.018Z,24.07
2018-09-11T00:36:46.631Z,24.07
2018-09-11T00:37:18.219Z,24.06
2018-09-11T00:37:49.821Z,24.06
2018-09-11T00:38:21.424Z,24.06
2018-09-11T00:38:52.994Z,24.05
2018-09-11T00:39:24.583Z,24.04
2018-09-11T00:39:56.187Z,24.04
2018-09-11T00:40:27.789Z,24.03
2018-09-11T00:40:59.418Z,24.03
2018-09-11T00:41:31.004Z,24.02
2018-09-11T00:42:02.645Z,24.03
2018-09-11T00:42:34.240Z,24.02
2018-09-11T00:43:05.814Z,24.02
2018-09-11T00:43:37.399Z,24.01
2018-09-11T00:44:08.984Z,24.01
2018-09-11T00:44:40.571Z,24.01
2018-09-11T00:45:12.177Z,24.00
2018-09-11T00:45:43.803Z,24.00
2018-09-11T00:46:15.387Z,24.00
2018-09-11T00:46:46.981Z,24.00
2018-09-11T00:47:18.577Z,24.00
2018-09-11T00:47:50.163Z,23.99
2018-09-11T00:48:21.748Z,23.99
2018-09-11T00:48:53.341Z,23.98
2018-09-11T00:49:24.914Z,23.99
2018-09-11T00:49:56.513Z,23.98
2018-09-11T00:50:28.149Z,23.98
2018-09-11T00:50:59.736Z,23.99
2018-09-11T00:51:31.323Z,23.98
2018-09-11T00:52:02.913Z,23.98
2018-09-11T00:52:34.503Z,23.96
2018-09-11T00:53:06.145Z,23.98
2018-09-11T00:53:37.731Z,23.98
2018-09-11T00:54:09.331Z,23.96
2018-09-11T00:54:40.930Z,23.98
2018-09-11T00:55:12.510Z,23.97
2018-09-11T00:55:44.105Z,23.97
2018-09-11T00:56:15.701Z,23.97
2018-09-11T00:56:47.301Z,23.96
2018-09-11T00:57:18.897Z,23.96
2018-09-11T00:57:50.537Z,23.97
2018-09-11T00:58:22.164Z,23.97
2018-09-11T00:58:53.751Z,23.97
2018-09-11T00:59:25.355Z,23.98
2018-09-11T00:59:56.948Z,23.91
2018-09-11T01:00:28.575Z,23.93
2018-09-11T01:01:00.164Z,23.93
2018-09-11T01:01:31.761Z,23.93
2018-09-11T01:02:03.362Z,23.93
2018-09-11T01:02:34.966Z,23.93
2018-09-11T01:03:06.562Z,23.93
2018-09-11T01:03:38.155Z,23.93
2018-09-11T01:04:09.739Z,23.92
2018-09-11T01:04:41.333Z,23.90
2018-09-11T01:05:12.968Z,23.91
2018-09-11T01:05:44.569Z,23.91
2018-09-11T01:06:16.155Z,23.91
2018-09-11T01:06:47.739Z,23.91
2018-09-11T01:07:19.324Z,23.91
2018-09-11T01:07:50.901Z,23.91
2018-09-11T01:08:22.483Z,23.90
2018-09-11T01:08:54.097Z,23.88
2018-09-11T01:09:25.698Z,23.89
2018-09-11T01:09:57.284Z,23.88
2018-09-11T01:10:28.867Z,23.87
2018-09-11T01:11:00.441Z,23.85
2018-09-11T01:11:32.037Z,23.85
2018-09-11T01:12:03.635Z,23.85
2018-09-11T01:12:35.229Z,23.84
2018-09-11T01:13:06.811Z,23.84
2018-09-11T01:13:38.410Z,23.85
2018-09-11T01:14:10.058Z,23.87
2018-09-11T01:14:41.657Z,23.89
2018-09-11T01:15:13.980Z,23.88
2018-09-11T01:15:45.564Z,23.90
2018-09-11T01:16:17.157Z,23.90
2018-09-11T01:16:48.743Z,23.91
2018-09-11T01:17:20.331Z,23.89
2018-09-11T01:17:51.918Z,23.91
2018-09-11T01:18:23.507Z,23.91
2018-09-11T01:18:55.113Z,23.90
2018-09-11T01:19:26.718Z,23.91
2018-09-11T01:19:58.312Z,23.93
2018-09-11T01:20:29.896Z,23.93
2018-09-11T01:21:01.472Z,23.95
2018-09-11T01:21:33.073Z,23.95
2018-09-11T01:22:04.650Z,23.96
2018-09-11T01:22:36.235Z,23.96
2018-09-11T01:23:07.819Z,23.98
2018-09-11T01:23:39.417Z,23.98
2018-09-11T01:24:10.998Z,23.98
2018-09-11T01:24:42.630Z,23.98
2018-09-11T01:25:14.256Z,23.99
2018-09-11T01:25:45.897Z,23.99
2018-09-11T01:26:17.493Z,23.99
2018-09-11T01:26:49.079Z,23.97
2018-09-11T01:27:20.662Z,23.99
2018-09-11T01:27:52.257Z,23.99
2018-09-11T01:28:23.844Z,23.99
2018-09-11T01:28:55.414Z,23.99
2018-09-11T01:29:26.999Z,23.99
2018-09-11T01:29:58.630Z,23.99
2018-09-11T01:30:30.230Z,23.99
2018-09-11T01:31:01.828Z,23.97
2018-09-11T01:31:33.455Z,23.97
2018-09-11T01:32:05.049Z,23.95
2018-09-11T01:32:36.635Z,23.95
2018-09-11T01:33:08.209Z,23.95
2018-09-11T01:33:39.809Z,23.98
2018-09-11T01:34:11.404Z,24.06
2018-09-11T01:34:43.005Z,24.13
2018-09-11T01:35:14.610Z,24.09
2018-09-11T01:35:46.249Z,24.08
2018-09-11T01:36:17.836Z,24.06
2018-09-11T01:36:49.429Z,24.02
2018-09-11T01:37:21.030Z,23.98
2018-09-11T01:37:52.602Z,23.96
2018-09-11T01:38:24.202Z,23.90
2018-09-11T01:38:55.831Z,23.90
2018-09-11T01:39:27.406Z,23.91
2018-09-11T01:39:59.007Z,23.90
2018-09-11T01:40:30.591Z,23.90
2018-09-11T01:41:02.184Z,23.90
2018-09-11T01:41:33.771Z,23.89
2018-09-11T01:42:05.370Z,23.88
2018-09-11T01:42:36.967Z,23.88
2018-09-11T01:43:08.551Z,23.88
2018-09-11T01:43:40.136Z,23.88
2018-09-11T01:44:11.713Z,23.87
2018-09-11T01:44:43.299Z,23.86
2018-09-11T01:45:14.888Z,23.87
2018-09-11T01:46:47.456Z,23.85
2018-09-11T01:47:19.053Z,23.86
2018-09-11T01:47:50.638Z,23.87
2018-09-11T01:48:22.220Z,23.88
2018-09-11T01:48:53.847Z,23.92
2018-09-11T01:49:25.483Z,23.94
2018-09-11T01:49:57.072Z,23.96
2018-09-11T01:50:28.655Z,23.97
2018-09-11T01:51:00.240Z,23.98
2018-09-11T01:51:31.841Z,23.99
2018-09-11T01:52:03.427Z,23.99
2018-09-11T01:52:35.012Z,23.98
2018-09-11T01:53:06.585Z,24.01
2018-09-11T01:53:38.171Z,24.02
2018-09-11T01:54:09.751Z,24.02
2018-09-11T01:54:41.377Z,24.01
2018-09-11T01:55:12.969Z,24.04
2018-09-11T01:55:44.560Z,24.04
2018-09-11T01:56:16.143Z,24.04
2018-09-11T01:56:47.727Z,24.03
2018-09-11T01:57:19.305Z,24.03
2018-09-11T01:57:50.891Z,24.04
2018-09-11T01:58:22.474Z,24.05
2018-09-11T01:58:54.055Z,24.06
2018-09-11T01:59:25.667Z,24.06
2018-09-11T01:59:57.299Z,24.05
2018-09-11T02:00:28.884Z,24.06
2018-09-11T02:01:00.486Z,24.05
2018-09-11T02:01:32.085Z,24.05
2018-09-11T02:02:03.671Z,24.04
2018-09-11T02:02:35.255Z,24.04
2018-09-11T02:03:06.854Z,24.04
2018-09-11T02:03:38.446Z,24.04
2018-09-11T02:04:10.032Z,24.04
2018-09-11T02:04:41.629Z,24.05
2018-09-11T02:05:13.256Z,24.05
2018-09-11T02:05:44.858Z,24.04
2018-09-11T02:06:16.449Z,24.03
2018-09-11T02:06:48.036Z,24.02
2018-09-11T02:07:19.623Z,24.00
2018-09-11T02:07:51.197Z,23.99
2018-09-11T02:08:22.793Z,23.98
2018-09-11T02:08:54.379Z,23.96
2018-09-11T02:09:25.968Z,23.96
2018-09-11T02:09:57.600Z,23.95
2018-09-11T02:10:29.170Z,23.93
2018-09-11T02:11:00.765Z,23.92
2018-09-11T02:11:32.351Z,23.91
2018-09-11T02:12:03.946Z,23.90
2018-09-11T02:12:35.535Z,23.87
2018-09-11T02:13:07.123Z,23.89
2018-09-11T02:13:38.693Z,23.87
2018-09-11T02:14:10.291Z,23.86
2018-09-11T02:14:41.879Z,23.86
2018-09-11T02:15:13.503Z,23.85
2018-09-11T02:15:45.153Z,23.84
2018-09-11T02:16:16.725Z,23.84
2018-09-11T02:16:48.308Z,23.85
2018-09-11T02:17:19.904Z,23.84
2018-09-11T02:17:51.507Z,23.83
2018-09-11T02:18:23.095Z,23.83
2018-09-11T02:18:54.689Z,23.83
2018-09-11T02:19:26.291Z,23.81
2018-09-11T02:19:57.880Z,23.79
2018-09-11T02:20:29.453Z,23.81
2018-09-11T02:21:01.080Z,23.80
2018-09-11T02:21:32.667Z,23.80
2018-09-11T02:22:04.262Z,23.80
2018-09-11T02:22:35.855Z,23.79
2018-09-11T02:23:07.439Z,23.79
2018-09-11T02:23:39.045Z,23.78
2018-09-11T02:24:10.617Z,23.78
2018-09-11T02:24:42.190Z,23.78
2018-09-11T02:25:13.807Z,23.78
2018-09-11T02:25:45.391Z,23.78
2018-09-11T02:26:16.975Z,23.78
2018-09-11T02:26:48.545Z,23.77
2018-09-11T02:27:20.131Z,23.77
2018-09-11T02:27:51.733Z,23.77
2018-09-11T02:28:23.323Z,23.78
2018-09-11T02:28:54.907Z,23.78
2018-09-11T02:29:26.492Z,23.79
2018-09-11T02:29:58.079Z,23.77
2018-09-11T02:30:29.686Z,23.79
2018-09-11T02:31:01.335Z,23.80
2018-09-11T02:31:32.923Z,23.77
2018-09-11T02:32:04.530Z,23.79
2018-09-11T02:32:36.172Z,23.79
2018-09-11T02:33:07.756Z,23.78
2018-09-11T02:33:39.357Z,23.79
2018-09-11T02:34:10.962Z,23.78
2018-09-11T02:34:42.537Z,23.78
2018-09-11T02:35:14.119Z,23.78
2018-09-11T02:35:45.733Z,23.79
2018-09-11T02:36:17.341Z,23.79
2018-09-11T02:36:48.936Z,23.79
2018-09-11T02:37:20.524Z,23.78
2018-09-11T02:37:52.169Z,23.78
2018-09-11T02:38:23.768Z,23.79
2018-09-11T02:38:55.356Z,23.79
2018-09-11T02:39:26.943Z,23.78
2018-09-11T02:39:58.517Z,23.79
2018-09-11T02:40:30.115Z,23.78
2018-09-11T02:41:01.713Z,23.85
2018-09-11T02:41:33.314Z,23.93
2018-09-11T02:42:04.916Z,23.95
2018-09-11T02:42:36.503Z,23.85
2018-09-11T02:43:08.137Z,23.93
2018-09-11T02:43:39.727Z,23.91
2018-09-11T02:44:11.315Z,23.89
2018-09-11T02:44:42.913Z,23.87
2018-09-11T02:45:14.555Z,23.77
2018-09-11T02:45:46.170Z,23.81
2018-09-11T02:46:17.769Z,23.79
2018-09-11T02:46:49.371Z,23.77
2018-09-11T02:47:20.945Z,23.75
2018-09-11T02:47:52.531Z,23.73
2018-09-11T02:48:24.132Z,23.71
2018-09-11T02:48:55.720Z,23.69
2018-09-11T02:49:27.329Z,23.67
2018-09-11T02:49:58.956Z,23.66
2018-09-11T02:50:30.555Z,23.64
2018-09-11T02:51:02.149Z,23.63
2018-09-11T02:51:33.735Z,23.62
2018-09-11T02:52:05.325Z,23.59
2018-09-11T02:52:36.947Z,23.60
2018-09-11T02:53:08.541Z,23.58
2018-09-11T02:53:40.128Z,23.57
2018-09-11T02:54:11.747Z,23.54
2018-09-11T02:54:43.346Z,23.55
2018-09-11T02:55:14.925Z,23.58
2018-09-11T02:55:46.526Z,23.61
2018-09-11T02:56:18.114Z,23.61
2018-09-11T02:56:49.711Z,23.58
2018-09-11T02:57:21.300Z,23.55
2018-09-11T02:57:52.914Z,23.51
2018-09-11T02:58:24.506Z,23.48
2018-09-11T02:58:56.114Z,23.46
2018-09-11T02:59:27.690Z,23.42
2018-09-11T02:59:59.321Z,23.40
2018-09-11T03:00:30.919Z,23.38
2018-09-11T03:01:02.489Z,23.36
2018-09-11T03:01:34.094Z,23.34
2018-09-11T03:02:05.677Z,23.31
2018-09-11T03:02:37.260Z,23.28
2018-09-11T03:03:08.893Z,23.31
2018-09-11T03:03:40.480Z,23.34
2018-09-11T03:04:12.086Z,23.32
2018-09-11T03:04:43.730Z,23.30
2018-09-11T03:05:15.374Z,23.28
2018-09-11T03:05:46.963Z,23.25
2018-09-11T03:06:18.547Z,23.23
2018-09-11T03:06:50.135Z,23.21
2018-09-11T03:07:21.719Z,23.19
2018-09-11T03:07:53.306Z,23.16
2018-09-11T03:08:24.889Z,23.14
2018-09-11T03:09:00.110Z,23.12
2018-09-11T03:09:31.695Z,23.11
2018-09-11T03:10:03.321Z,23.10
2018-09-11T03:10:34.920Z,23.09
2018-09-11T03:11:06.503Z,23.08
2018-09-11T03:11:38.145Z,23.06
2018-09-11T03:12:09.731Z,23.05
2018-09-11T03:12:41.319Z,23.03
2018-09-11T03:13:12.903Z,23.01
2018-09-11T03:13:44.494Z,23.00
2018-09-11T03:14:16.103Z,22.99
2018-09-11T03:14:47.691Z,22.98
2018-09-11T03:15:19.315Z,22.97
2018-09-11T03:15:50.895Z,22.97
2018-09-11T03:16:22.505Z,22.95
2018-09-11T03:16:54.121Z,22.95
2018-09-11T03:17:25.693Z,22.92
2018-09-11T03:17:57.275Z,22.93
2018-09-11T03:18:28.858Z,22.92
2018-09-11T03:19:00.454Z,22.92
2018-09-11T03:19:32.050Z,22.91
2018-09-11T03:20:03.653Z,22.90
2018-09-11T03:20:35.239Z,22.90
2018-09-11T03:21:06.827Z,22.88
2018-09-11T03:21:38.428Z,22.90
2018-09-11T03:22:10.070Z,22.90
2018-09-11T03:22:41.700Z,22.90
2018-09-11T03:23:13.274Z,22.90
2018-09-11T03:23:44.879Z,22.89
2018-09-11T03:24:16.453Z,22.88
2018-09-11T03:24:48.047Z,22.87
2018-09-11T03:25:19.646Z,22.87
2018-09-11T03:25:51.235Z,22.85
2018-09-11T03:26:22.824Z,22.87
2018-09-11T03:26:54.417Z,22.85
2018-09-11T03:27:26.003Z,22.84
2018-09-11T03:27:57.628Z,22.83
2018-09-11T03:28:29.211Z,22.82
2018-09-11T03:29:00.817Z,22.81
2018-09-11T03:29:32.408Z,22.80
2018-09-11T03:30:03.995Z,22.80
2018-09-11T03:30:35.578Z,22.79
2018-09-11T03:31:07.163Z,22.78
2018-09-11T03:31:38.800Z,22.78
2018-09-11T03:32:10.397Z,22.78
2018-09-11T03:32:41.998Z,22.76
2018-09-11T03:33:13.583Z,22.75
2018-09-11T03:33:45.171Z,22.78
2018-09-11T03:34:16.778Z,22.76
2018-09-11T03:34:48.373Z,22.75
2018-09-11T03:35:19.959Z,22.75
2018-09-11T03:35:51.544Z,22.74
2018-09-11T03:36:23.127Z,22.73
2018-09-11T03:36:54.728Z,22.73
2018-09-11T03:37:26.330Z,22.72
2018-09-11T03:37:57.915Z,22.71
2018-09-11T03:38:29.552Z,22.71
2018-09-11T03:39:01.135Z,22.70
2018-09-11T03:39:32.733Z,22.70
2018-09-11T03:40:04.316Z,22.71
2018-09-11T03:40:35.893Z,22.71
2018-09-11T03:41:07.493Z,22.70
2018-09-11T03:41:39.079Z,22.69
2018-09-11T03:42:10.677Z,22.70
2018-09-11T03:42:42.267Z,22.70
2018-09-11T03:43:13.865Z,22.71
2018-09-11T03:43:45.498Z,22.70
2018-09-11T03:44:17.154Z,22.70
2018-09-11T03:44:48.710Z,22.70
2018-09-11T03:45:20.307Z,22.70
2018-09-11T03:45:52.188Z,22.69
2018-09-11T03:46:23.781Z,22.68
2018-09-11T03:46:55.372Z,22.67
2018-09-11T03:47:26.973Z,22.67
2018-09-11T03:47:58.550Z,22.66
2018-09-11T03:48:30.144Z,22.66
2018-09-11T03:49:01.775Z,22.67
2018-09-11T03:49:33.360Z,22.68
2018-09-11T03:50:04.962Z,22.68
2018-09-11T03:50:36.552Z,22.67
2018-09-11T03:51:08.135Z,22.66
2018-09-11T03:51:39.738Z,22.67
2018-09-11T03:52:11.398Z,22.67
2018-09-11T03:52:42.996Z,22.66
2018-09-11T03:53:14.649Z,22.63
2018-09-11T03:53:46.250Z,22.64
2018-09-11T03:54:17.825Z,22.64
2018-09-11T03:54:49.417Z,22.63
2018-09-11T03:55:21.018Z,22.61
2018-09-11T03:55:52.605Z,22.61
2018-09-11T03:56:24.201Z,22.60
2018-09-11T03:56:55.794Z,22.59
2018-09-11T03:57:27.391Z,22.56
2018-09-11T03:57:58.998Z,22.57
2018-09-11T03:58:30.765Z,22.57
2018-09-11T03:59:02.368Z,22.57
2018-09-11T03:59:33.975Z,22.57
2018-09-11T04:00:05.550Z,22.57
2018-09-11T04:00:37.135Z,22.56
2018-09-11T04:01:08.720Z,22.56
2018-09-11T04:01:40.297Z,22.56
2018-09-11T04:02:11.880Z,22.56
2018-09-11T04:02:43.477Z,22.55
2018-09-11T04:03:15.074Z,22.54
2018-09-11T04:03:46.699Z,22.55
2018-09-11T04:04:18.292Z,22.55
2018-09-11T04:04:49.896Z,22.54
2018-09-11T04:05:21.530Z,22.54
2018-09-11T04:05:53.096Z,22.52
2018-09-11T04:06:24.683Z,22.52
2018-09-11T04:06:56.284Z,22.52
2018-09-11T04:07:27.877Z,22.50
2018-09-11T04:07:59.463Z,22.51
2018-09-11T04:08:31.070Z,22.51
2018-09-11T04:09:02.707Z,22.51
2018-09-11T04:09:34.306Z,22.51
2018-09-11T04:10:05.903Z,22.51
2018-09-11T04:10:37.493Z,22.51
2018-09-11T04:11:09.093Z,22.50
2018-09-11T04:11:40.698Z,22.47
2018-09-11T04:12:12.296Z,22.49
2018-09-11T04:12:43.884Z,22.48
2018-09-11T04:13:15.486Z,22.46
2018-09-11T04:13:47.221Z,22.48
2018-09-11T04:14:18.860Z,22.47
2018-09-11T04:14:50.451Z,22.48
2018-09-11T04:15:22.038Z,22.47
2018-09-11T04:15:53.619Z,22.47
2018-09-11T04:16:25.204Z,22.46
2018-09-11T04:16:56.804Z,22.46
2018-09-11T04:17:28.431Z,22.47
2018-09-11T04:18:00.001Z,22.46
2018-09-11T04:18:31.595Z,22.46
2018-09-11T04:19:03.171Z,22.45
2018-09-11T04:19:34.759Z,22.45
2018-09-11T04:20:06.353Z,22.46
2018-09-11T04:20:37.943Z,22.44
2018-09-11T04:21:09.568Z,22.44
2018-09-11T04:21:41.159Z,22.43
2018-09-11T04:22:12.761Z,22.42
2018-09-11T04:22:44.357Z,22.42
2018-09-11T04:23:15.957Z,22.42
2018-09-11T04:23:47.557Z,22.42
2018-09-11T04:24:19.126Z,22.42
2018-09-11T04:24:50.712Z,22.41
2018-09-11T04:25:22.313Z,22.41
2018-09-11T04:25:53.917Z,22.41
2018-09-11T04:26:25.558Z,22.41
2018-09-11T04:26:57.149Z,22.41
2018-09-11T04:27:28.741Z,22.40
2018-09-11T04:28:00.337Z,22.40
2018-09-11T04:28:31.923Z,22.39
2018-09-11T04:29:03.512Z,22.39
2018-09-11T04:29:35.096Z,22.39
2018-09-11T04:30:06.679Z,22.39
2018-09-11T04:30:38.272Z,22.39
2018-09-11T04:31:09.855Z,22.39
2018-09-11T04:31:41.480Z,22.39
2018-09-11T04:32:13.077Z,22.37
2018-09-11T04:32:44.667Z,22.38
2018-09-11T04:33:16.261Z,22.22
2018-09-11T04:33:47.866Z,22.38
2018-09-11T04:34:19.465Z,22.37
2018-09-11T04:34:51.063Z,22.37
2018-09-11T04:35:22.650Z,22.37
2018-09-11T04:35:54.254Z,22.37
2018-09-11T04:36:25.895Z,22.36
2018-09-11T04:36:57.530Z,22.36
2018-09-11T04:37:29.115Z,22.35
2018-09-11T04:38:00.700Z,22.35
2018-09-11T04:38:32.298Z,22.34
2018-09-11T04:39:03.889Z,22.34
2018-09-11T04:39:35.481Z,22.33
2018-09-11T04:40:07.080Z,22.33
2018-09-11T04:40:38.667Z,22.33
2018-09-11T04:41:10.241Z,22.34
2018-09-11T04:41:41.823Z,22.32
2018-09-11T04:42:13.439Z,22.32
2018-09-11T04:42:45.010Z,22.32
2018-09-11T04:43:16.668Z,22.32
2018-09-11T04:43:48.269Z,22.32
2018-09-11T04:44:19.860Z,22.32
2018-09-11T04:44:51.453Z,22.32
2018-09-11T04:45:23.044Z,22.33
2018-09-11T04:45:54.641Z,22.32
2018-09-11T04:46:26.220Z,22.32
2018-09-11T04:46:57.832Z,22.32
2018-09-11T04:47:29.473Z,22.31
2018-09-11T04:48:01.050Z,22.31
2018-09-11T04:48:32.675Z,22.32
2018-09-11T04:49:04.260Z,22.32
2018-09-11T04:49:35.848Z,22.31
2018-09-11T04:50:07.449Z,22.31
2018-09-11T04:50:39.057Z,22.30
2018-09-11T04:51:10.653Z,22.30
2018-09-11T04:51:42.244Z,22.29
2018-09-11T04:52:13.827Z,22.30
2018-09-11T04:52:45.451Z,22.28
2018-09-11T04:53:17.045Z,22.30
2018-09-11T04:53:48.672Z,22.30
2018-09-11T04:54:20.255Z,22.30
2018-09-11T04:54:51.829Z,22.30
2018-09-11T04:55:23.425Z,22.30
2018-09-11T04:55:55.086Z,22.29
2018-09-11T04:56:26.626Z,22.29
2018-09-11T04:56:58.222Z,22.28
2018-09-11T04:57:29.808Z,22.27
2018-09-11T04:58:01.396Z,22.27
2018-09-11T04:58:33.023Z,22.27
2018-09-11T04:59:04.656Z,22.27
2018-09-11T04:59:36.247Z,22.27
2018-09-11T05:00:07.818Z,22.27
2018-09-11T05:00:39.418Z,22.27
2018-09-11T05:01:11.057Z,22.27
2018-09-11T05:01:42.640Z,22.27
2018-09-11T05:02:14.226Z,22.26
2018-09-11T05:02:45.807Z,22.26
2018-09-11T05:03:17.378Z,22.26
2018-09-11T05:03:48.960Z,22.25
2018-09-11T05:04:21.336Z,22.25
2018-09-11T05:04:52.942Z,22.24
2018-09-11T05:05:24.527Z,22.24
2018-09-11T05:05:56.126Z,22.24
2018-09-11T05:06:27.760Z,22.23
2018-09-11T05:06:59.368Z,22.24
2018-09-11T05:07:30.942Z,22.24
2018-09-11T05:08:02.537Z,22.24
2018-09-11T05:08:34.162Z,22.24
2018-09-11T05:09:05.805Z,22.23
2018-09-11T05:09:37.399Z,22.24
2018-09-11T05:10:09.002Z,22.22
2018-09-11T05:10:40.602Z,22.23
2018-09-11T05:11:12.187Z,22.22
2018-09-11T05:11:43.780Z,22.20
2018-09-11T05:12:15.367Z,22.22
2018-09-11T05:12:46.977Z,22.23
2018-09-11T05:13:18.557Z,22.23
2018-09-11T05:13:50.154Z,22.24
2018-09-11T05:14:21.774Z,22.22
2018-09-11T05:14:53.365Z,22.24
2018-09-11T05:15:24.947Z,22.25
2018-09-11T05:15:56.521Z,22.25
2018-09-11T05:16:28.121Z,22.26
2018-09-11T05:16:59.757Z,22.25
2018-09-11T05:17:31.333Z,22.25
2018-09-11T05:18:02.920Z,22.23
2018-09-11T05:18:34.503Z,22.23
2018-09-11T05:19:06.162Z,22.23
2018-09-11T05:19:37.703Z,22.22
2018-09-11T05:20:09.288Z,22.20
2018-09-11T05:20:40.896Z,22.21
2018-09-11T05:21:12.497Z,22.21
2018-09-11T05:21:44.097Z,22.20
2018-09-11T05:22:15.742Z,22.20
2018-09-11T05:22:47.341Z,22.21
2018-09-11T05:23:18.928Z,22.21
2018-09-11T05:23:50.532Z,22.22
2018-09-11T05:24:22.137Z,22.21
2018-09-11T05:24:53.743Z,22.22
2018-09-11T05:25:25.339Z,22.20
2018-09-11T05:25:56.975Z,22.21
2018-09-11T05:26:28.563Z,22.21
2018-09-11T05:27:00.151Z,22.21
2018-09-11T05:27:31.804Z,22.20
2018-09-11T05:28:03.426Z,22.19
2018-09-11T05:28:35.030Z,22.19
2018-09-11T05:29:06.616Z,22.19
2018-09-11T05:29:38.213Z,22.19
2018-09-11T05:30:09.790Z,22.18
2018-09-11T05:30:41.385Z,22.18
2018-09-11T05:31:12.971Z,22.18
2018-09-11T05:31:44.573Z,22.19
2018-09-11T05:32:16.174Z,22.20
2018-09-11T05:32:47.933Z,22.20
2018-09-11T05:33:19.505Z,22.21
2018-09-11T05:33:51.092Z,22.20
2018-09-11T05:34:22.685Z,22.21
2018-09-11T05:34:54.271Z,22.21
2018-09-11T05:35:25.846Z,22.21
2018-09-11T05:35:57.432Z,22.20
2018-09-11T05:36:29.023Z,22.20
2018-09-11T05:37:00.597Z,22.20
2018-09-11T05:37:32.185Z,22.19
2018-09-11T05:38:03.825Z,22.19
2018-09-11T05:38:35.401Z,22.18
2018-09-11T05:39:07.085Z,22.19
2018-09-11T05:39:38.604Z,22.18
2018-09-11T05:40:10.220Z,22.18
2018-09-11T05:40:41.808Z,22.19
2018-09-11T05:41:13.394Z,22.18
2018-09-11T05:41:44.983Z,22.18
2018-09-11T05:42:16.568Z,22.17
2018-09-11T05:42:48.209Z,22.16
2018-09-11T05:43:19.810Z,22.16
2018-09-11T05:43:51.435Z,22.16
2018-09-11T05:44:23.024Z,22.16
2018-09-11T05:44:54.611Z,22.16
2018-09-11T05:45:26.217Z,22.15
2018-09-11T05:45:57.799Z,22.16
2018-09-11T05:46:29.405Z,22.16
2018-09-11T05:47:01.020Z,22.15
2018-09-11T05:47:32.655Z,22.14
2018-09-11T05:48:04.239Z,22.15
2018-09-11T05:48:35.838Z,22.14
2018-09-11T05:49:07.424Z,22.16
2018-09-11T05:49:39.085Z,22.17
2018-09-11T05:50:10.730Z,22.14
2018-09-11T05:50:42.342Z,22.16
2018-09-11T05:51:13.923Z,22.16
2018-09-11T05:51:45.529Z,22.15
2018-09-11T05:52:17.134Z,21.90
2018-09-11T05:52:48.740Z,22.14
2018-09-11T05:53:20.328Z,22.14
2018-09-11T05:53:51.924Z,22.12
2018-09-11T05:54:23.516Z,22.03
2018-09-11T05:54:55.113Z,22.13
2018-09-11T05:55:26.748Z,22.13
2018-09-11T05:55:58.341Z,22.15
2018-09-11T05:56:29.942Z,22.15
2018-09-11T05:57:01.539Z,22.15
2018-09-11T05:57:33.109Z,22.15
2018-09-11T05:58:04.695Z,22.14
2018-09-11T05:58:36.289Z,22.14
2018-09-11T05:59:07.885Z,22.14
2018-09-11T05:59:39.472Z,22.15
2018-09-11T06:00:11.106Z,22.14
2018-09-11T06:00:42.691Z,22.13
2018-09-11T06:01:14.285Z,22.14
2018-09-11T06:01:45.881Z,22.13
2018-09-11T06:02:17.478Z,22.13
2018-09-11T06:02:49.063Z,22.13
2018-09-11T06:03:20.646Z,22.14
2018-09-11T06:03:52.235Z,22.14
2018-09-11T06:04:23.834Z,22.14
2018-09-11T06:04:55.424Z,22.13
2018-09-11T06:05:27.131Z,22.13
2018-09-11T06:05:58.672Z,22.13
2018-09-11T06:06:30.259Z,22.07
2018-09-11T06:07:01.840Z,22.13
2018-09-11T06:07:33.436Z,22.14
2018-09-11T06:08:05.024Z,22.14
2018-09-11T06:08:36.607Z,22.13
2018-09-11T06:09:08.178Z,22.14
2018-09-11T06:09:39.777Z,22.13
2018-09-11T06:10:11.408Z,22.14
2018-09-11T06:10:43.062Z,22.15
2018-09-11T06:11:14.647Z,22.13
2018-09-11T06:11:46.245Z,22.14
2018-09-11T06:12:17.942Z,22.14
2018-09-11T06:12:49.537Z,22.14
2018-09-11T06:13:21.122Z,22.13
2018-09-11T06:13:52.704Z,22.13
2018-09-11T06:14:24.341Z,22.13
2018-09-11T06:14:55.917Z,22.12
2018-09-11T06:15:27.549Z,22.12
2018-09-11T06:15:59.150Z,22.11
2018-09-11T06:16:30.748Z,22.11
2018-09-11T06:17:02.378Z,22.11
2018-09-11T06:17:33.949Z,22.12
2018-09-11T06:18:05.557Z,22.12
2018-09-11T06:18:37.157Z,22.13
2018-09-11T06:19:08.757Z,22.13
2018-09-11T06:19:40.405Z,22.12
2018-09-11T06:20:12.000Z,22.12
2018-09-11T06:20:43.594Z,22.12
2018-09-11T06:21:15.169Z,22.12
2018-09-11T06:21:46.765Z,22.12
2018-09-11T06:22:18.356Z,22.12
2018-09-11T06:22:49.993Z,22.12
2018-09-11T06:23:21.589Z,22.12
2018-09-11T06:23:53.175Z,22.11
2018-09-11T06:24:24.769Z,22.11
2018-09-11T06:24:56.356Z,22.12
2018-09-11T06:25:27.977Z,22.12
2018-09-11T06:25:59.577Z,22.12
2018-09-11T06:26:31.171Z,22.13
2018-09-11T06:27:02.764Z,22.13
2018-09-11T06:27:34.361Z,22.13
2018-09-11T06:28:05.991Z,22.13
2018-09-11T06:28:37.577Z,22.12
2018-09-11T06:29:09.201Z,22.13
2018-09-11T06:29:40.809Z,22.14
2018-09-11T06:30:12.395Z,22.13
2018-09-11T06:30:43.979Z,22.13
2018-09-11T06:31:15.567Z,22.12
2018-09-11T06:31:47.154Z,22.12
2018-09-11T06:32:18.730Z,22.13
2018-09-11T06:32:50.370Z,22.13
2018-09-11T06:33:21.969Z,22.13
2018-09-11T06:33:53.569Z,22.14
2018-09-11T06:34:25.182Z,22.14
2018-09-11T06:34:56.786Z,22.14
2018-09-11T06:35:28.460Z,22.13
2018-09-11T06:36:00.071Z,22.13
2018-09-11T06:36:31.628Z,22.14
2018-09-11T06:37:03.236Z,22.14
2018-09-11T06:37:34.813Z,22.15
2018-09-11T06:38:06.400Z,22.16
2018-09-11T06:38:38.006Z,22.16
2018-09-11T06:39:09.595Z,22.16
2018-09-11T06:39:41.190Z,22.17
2018-09-11T06:40:12.775Z,22.06
2018-09-11T06:40:44.351Z,22.17
2018-09-11T06:41:16.007Z,22.18
2018-09-11T06:41:47.601Z,22.17
2018-09-11T06:42:19.187Z,22.18
2018-09-11T06:42:50.776Z,22.18
2018-09-11T06:43:22.349Z,22.19
2018-09-11T06:43:53.925Z,22.19
2018-09-11T06:44:25.511Z,22.19
2018-09-11T06:44:57.149Z,22.20
2018-09-11T06:45:28.745Z,22.21
2018-09-11T06:46:00.333Z,22.19
2018-09-11T06:46:31.934Z,22.21
2018-09-11T06:47:03.580Z,22.21
2018-09-11T06:47:35.150Z,22.18
2018-09-11T06:48:06.748Z,22.18